Time;durP1;ratioP1;P1;durP2;ratioP2;P2;SDS_P1;SDS_P2;PMS_P1;PMS_P2;Temp;Humidity;BMP_temperature;BMP_pressure;BME280_temperature;BME280_humidity;BME280_pressure;Samples;Min_cycle;Max_cycle;Signal;HPM_P1;HPM_P2
2023/01/04 00:00:06;;;;;;;0.80;0.80;;;;;;;-1.24;100.00;97859.09;4938063;29;20054;-87
2023/01/04 00:02:33;;;;;;;0.75;0.75;;;;;;;-1.27;100.00;97853.34;4937981;29;20067;-89
2023/01/04 00:05:01;;;;;;;1.00;1.00;;;;;;;-1.25;100.00;97851.34;4940077;29;20043;-89
2023/01/04 00:07:29;;;;;;;0.88;0.88;;;;;;;-1.21;100.00;97858.69;4954456;28;20055;-86
2023/01/04 00:09:58;;;;;;;1.00;1.00;;;;;;;-1.21;100.00;97864.00;4937994;29;20058;-87
2023/01/04 00:12:25;;;;;;;0.80;0.80;;;;;;;-1.26;100.00;97861.13;4954584;29;20044;-86
2023/01/04 00:14:53;;;;;;;0.90;0.90;;;;;;;-1.23;100.00;97871.31;4937707;29;20105;-87
2023/01/04 00:17:20;;;;;;;0.90;0.90;;;;;;;-1.21;100.00;97864.00;4947328;29;20086;-87
2023/01/04 00:19:47;;;;;;;0.90;0.90;;;;;;;-1.20;100.00;97883.34;4954729;29;20057;-87
2023/01/04 00:22:14;;;;;;;0.90;0.90;;;;;;;-1.18;100.00;97873.38;4937342;29;20588;-86
2023/01/04 00:24:41;;;;;;;1.00;1.00;;;;;;;-1.21;100.00;97897.59;4954552;29;20082;-86
2023/01/04 00:27:08;;;;;;;0.80;0.80;;;;;;;-1.19;100.00;97898.19;4938092;29;20907;-86
2023/01/04 00:29:35;;;;;;;0.80;0.80;;;;;;;-1.17;100.00;97910.22;4917985;29;20051;-86
2023/01/04 00:32:03;;;;;;;0.77;0.77;;;;;;;-1.21;100.00;97916.13;4917908;29;20130;-86
2023/01/04 00:34:30;;;;;;;0.85;0.85;;;;;;;-1.21;100.00;97916.13;4918625;29;20534;-86
2023/01/04 00:36:57;;;;;;;0.80;0.80;;;;;;;-1.29;100.00;97890.63;4934226;29;20138;-86
2023/01/04 00:39:25;;;;;;;0.90;0.90;;;;;;;-1.25;100.00;97925.47;4934209;29;20051;-86
2023/01/04 00:42:03;;;;;;;0.90;0.90;;;;;;;-1.22;100.00;97914.47;4934061;29;20139;-86
2023/01/04 00:44:33;;;;;;;1.00;1.00;;;;;;;-1.21;100.00;97930.19;4934219;29;20395;-86
2023/01/04 00:47:01;;;;;;;0.90;0.90;;;;;;;-1.33;100.00;97918.50;4941683;29;20055;-86
2023/01/04 00:49:31;;;;;;;0.95;0.95;;;;;;;-1.25;100.00;97920.16;4925267;29;20057;-85
2023/01/04 00:51:58;;;;;;;0.90;0.90;;;;;;;-1.22;100.00;97925.06;4937238;29;20142;-86
2023/01/04 00:54:26;;;;;;;0.98;0.98;;;;;;;-1.24;100.00;97932.38;4932568;29;20066;-85
2023/01/04 00:56:53;;;;;;;0.82;0.82;;;;;;;-1.26;100.00;97943.19;4934419;29;20142;-86
2023/01/04 00:59:21;;;;;;;0.88;0.88;;;;;;;-1.26;100.00;97945.81;4934615;29;20118;-85
2023/01/04 01:01:49;;;;;;;0.90;0.90;;;;;;;-1.24;100.00;97943.81;4933621;29;20510;-85
2023/01/04 01:04:19;;;;;;;0.90;0.90;;;;;;;-1.26;100.00;97948.47;4933191;29;20110;-86
2023/01/04 01:06:47;;;;;;;0.70;0.70;;;;;;;-1.29;100.00;97962.09;4934373;29;20061;-86
2023/01/04 01:09:15;;;;;;;0.70;0.70;;;;;;;-1.33;100.00;97971.44;4901979;29;20111;-85
2023/01/04 01:11:42;;;;;;;0.73;0.73;;;;;;;-1.54;100.00;97964.38;4934040;29;20130;-84
2023/01/04 01:14:17;;;;;;;0.95;0.95;;;;;;;-1.58;100.00;97990.38;4918047;29;20075;-84
2023/01/04 01:16:44;;;;;;;;;;;;;;;-1.63;100.00;98002.56;4939531;29;20067;-84
2023/01/04 01:19:28;;;;;;;0.80;0.80;;;;;;;-1.68;100.00;98003.13;4940412;29;20021;-84
2023/01/04 01:21:56;;;;;;;0.70;0.70;;;;;;;-1.76;100.00;98004.06;4938385;29;20087;-83
2023/01/04 01:24:24;;;;;;;0.88;0.88;;;;;;;-1.74;100.00;98022.41;4921109;29;20048;-83
2023/01/04 01:26:52;;;;;;;0.73;0.73;;;;;;;-1.75;100.00;98018.13;4937422;29;20087;-84
2023/01/04 01:29:19;;;;;;;0.88;0.88;;;;;;;-1.84;100.00;98027.22;4937676;29;20055;-84
2023/01/04 01:31:46;;;;;;;0.77;0.77;;;;;;;-2.00;99.82;98055.53;4920040;29;20052;-82
2023/01/04 01:34:13;;;;;;;0.65;0.65;;;;;;;-2.15;97.75;98051.28;4889551;29;20055;-85
2023/01/04 01:36:41;;;;;;;0.90;0.90;;;;;;;-2.31;95.69;98060.25;4937215;29;20078;-84
2023/01/04 01:39:08;;;;;;;0.77;0.77;;;;;;;-2.42;94.99;98072.13;4921003;29;20163;-84
2023/01/04 01:41:35;;;;;;;0.82;0.82;;;;;;;-2.50;93.96;98080.16;4904936;29;20055;-85
2023/01/04 01:44:43;;;;;;;0.77;0.77;;;;;;;-2.55;93.32;98098.38;4938133;29;20048;-84
2023/01/04 01:47:16;;;;;;;0.77;0.77;;;;;;;-2.74;91.74;98103.19;4937936;29;20062;-84
2023/01/04 01:49:46;;;;;;;0.70;0.70;;;;;;;-2.78;91.18;98120.41;4890727;29;20063;-85
2023/01/04 01:52:18;;;;;;;0.70;0.70;;;;;;;-2.87;90.81;98124.94;4938909;29;20056;-84
2023/01/04 01:54:48;;;;;;;0.82;0.82;;;;;;;-2.99;89.66;98130.84;4904388;29;20112;-84
2023/01/04 01:57:19;;;;;;;0.80;0.80;;;;;;;-3.33;89.66;98129.50;4936739;29;20052;-84
2023/01/04 01:59:47;;;;;;;0.93;0.93;;;;;;;-3.33;89.94;98153.25;4918940;29;20115;-84
2023/01/04 02:02:14;;;;;;;1.00;1.00;;;;;;;-3.38;90.29;98145.03;4919439;29;20399;-83
2023/01/04 02:04:44;;;;;;;0.90;0.90;;;;;;;-3.39;90.83;98172.41;4936340;29;20511;-84
2023/01/04 02:07:12;;;;;;;0.75;0.75;;;;;;;-3.39;90.70;98175.03;4934931;29;20056;-85
2023/01/04 02:09:39;;;;;;;0.90;0.90;;;;;;;-3.44;90.41;98183.50;4919183;29;20062;-83
2023/01/04 02:12:16;;;;;;;0.90;0.90;;;;;;;-3.45;90.43;98197.66;4919133;29;20491;-84
2023/01/04 02:14:45;;;;;;;1.00;1.00;;;;;;;-3.53;90.51;98189.81;4936384;29;20058;-84
2023/01/04 02:17:24;;;;;;;1.05;1.05;;;;;;;-3.40;90.62;98207.69;4934919;29;20056;-84
2023/01/04 02:20:16;;;;;;;0.60;0.60;;;;;;;-3.39;90.57;98227.81;4935708;29;20495;-84
2023/01/04 02:22:58;;;;;;;0.95;0.95;;;;;;;-3.40;90.62;98226.16;4935889;29;20573;-85
2023/01/04 02:25:31;;;;;;;0.77;0.77;;;;;;;-3.45;90.75;98231.16;4941602;29;20422;-84
2023/01/04 02:28:02;;;;;;;0.73;0.73;;;;;;;-3.51;89.86;98241.41;4938183;29;20070;-84
2023/01/04 02:31:06;;;;;;;0.70;0.70;;;;;;;-3.51;90.15;98243.22;4919616;29;20047;-84
2023/01/04 02:33:42;;;;;;;0.70;0.70;;;;;;;-3.55;90.57;98253.28;4918654;29;20055;-84
2023/01/04 02:36:20;;;;;;;0.68;0.68;;;;;;;-3.60;90.37;98260.88;4919120;29;20062;-84
2023/01/04 02:39:12;;;;;;;0.80;0.80;;;;;;;-3.63;90.43;98277.06;4903012;29;20434;-84
2023/01/04 02:41:49;;;;;;;0.90;0.90;;;;;;;-3.61;90.80;98282.19;4919274;29;20752;-84
2023/01/04 02:47:16;;;;;;;0.60;0.60;;;;;;;-3.62;91.31;98289.28;4936969;29;20075;-85
2023/01/04 02:52:32;;;;;;;0.70;0.70;;;;;;;-3.71;90.51;98303.47;4937661;29;20188;-86
2023/01/04 02:55:00;;;;;;;0.70;0.70;;;;;;;-3.82;90.00;98301.19;4890913;29;20079;-86
2023/01/04 02:57:43;;;;;;;0.60;0.60;;;;;;;-3.75;90.41;98318.84;4907141;29;20059;-84
2023/01/04 03:06:51;;;;;;;0.70;0.70;;;;;;;-3.72;90.69;98344.84;4907788;29;20055;-83
2023/01/04 03:09:21;;;;;;;0.80;0.80;;;;;;;-3.67;90.82;98356.69;4894344;29;20424;-84
2023/01/04 03:14:47;;;;;;;0.70;0.70;;;;;;;-3.64;90.93;98362.47;4907920;29;20068;-84
2023/01/04 03:17:15;;;;;;;0.70;0.70;;;;;;;-3.69;90.67;98358.69;4895350;29;20455;-84
2023/01/04 03:19:55;;;;;;;0.80;0.80;;;;;;;-3.78;90.39;98382.44;4894772;29;20056;-83
2023/01/04 03:36:55;;;;;;;0.70;0.70;;;;;;;-3.86;91.08;98431.72;4893946;29;20139;-84
2023/01/04 03:48:30;;;;;;;0.63;0.63;;;;;;;-3.92;90.50;98457.78;4933552;29;20150;-83
2023/01/04 03:51:15;;;;;;;0.80;0.80;;;;;;;-3.88;90.57;98460.88;4917932;29;20059;-85
2023/01/04 03:54:08;;;;;;;0.70;0.70;;;;;;;-3.82;90.66;98464.66;4934407;29;20153;-85
2023/01/04 03:56:40;;;;;;;0.73;0.73;;;;;;;-3.81;90.76;98474.25;4932704;29;20070;-84
2023/01/04 03:59:08;;;;;;;0.85;0.85;;;;;;;-3.76;90.62;98475.38;4932985;29;20044;-85
2023/01/04 04:01:35;;;;;;;0.80;0.80;;;;;;;-3.77;90.34;98484.31;4932637;29;20438;-84
2023/01/04 04:09:34;;;;;;;0.70;0.70;;;;;;;-3.76;89.96;98500.94;4934025;29;20388;-84
2023/01/04 04:12:01;;;;;;;0.90;0.90;;;;;;;-3.84;89.16;98511.50;4934454;29;20047;-83
2023/01/04 04:14:28;;;;;;;0.73;0.73;;;;;;;-3.95;88.88;98510.84;4932668;29;20048;-85
2023/01/04 04:16:56;;;;;;;0.50;0.50;;;;;;;-3.97;88.98;98515.44;4916924;29;20052;-84
2023/01/04 04:19:23;;;;;;;0.77;0.77;;;;;;;-3.90;89.36;98523.50;4932939;29;20082;-84
2023/01/04 04:21:50;;;;;;;0.82;0.82;;;;;;;-3.82;89.48;98527.94;4938373;29;20052;-82
2023/01/04 04:24:24;;;;;;;0.75;0.75;;;;;;;-3.78;89.86;98518.75;4918932;29;20107;-84
2023/01/04 04:26:55;;;;;;;0.82;0.82;;;;;;;-3.81;89.44;98535.72;4918591;29;20063;-85
2023/01/04 04:29:23;;;;;;;0.70;0.70;;;;;;;-3.84;89.46;98537.88;4933972;29;20077;-86
2023/01/04 04:31:50;;;;;;;0.70;0.70;;;;;;;-3.84;89.36;98540.50;4933501;29;20056;-84
2023/01/04 04:34:17;;;;;;;0.70;0.70;;;;;;;-3.82;89.46;98539.34;4916849;29;20043;-85
2023/01/04 04:36:46;;;;;;;0.70;0.70;;;;;;;-3.83;89.70;98542.97;4934626;29;20415;-84
2023/01/04 04:39:13;;;;;;;0.73;0.73;;;;;;;-3.84;89.84;98553.69;4933712;29;20054;-84
2023/01/04 04:41:40;;;;;;;0.73;0.73;;;;;;;-3.88;89.67;98549.72;4933692;29;20095;-86
2023/01/04 04:44:11;;;;;;;0.80;0.80;;;;;;;-3.92;89.98;98557.97;4917783;29;20088;-85
2023/01/04 04:46:39;;;;;;;0.75;0.75;;;;;;;-3.90;90.32;98554.31;4933731;29;20126;-84
2023/01/04 04:49:07;;;;;;;0.60;0.60;;;;;;;-3.87;90.26;98572.44;4933276;29;20815;-84
2023/01/04 04:51:35;;;;;;;0.70;0.70;;;;;;;-3.81;90.83;98577.09;4933605;29;20486;-85
2023/01/04 04:54:03;;;;;;;0.60;0.60;;;;;;;-3.86;90.61;98577.56;4916582;29;20094;-85
2023/01/04 04:56:30;;;;;;;0.60;0.60;;;;;;;-3.93;90.44;98584.47;4916448;29;20047;-84
2023/01/04 04:58:57;;;;;;;0.70;0.70;;;;;;;-4.01;90.57;98580.00;4933262;29;20052;-84
2023/01/04 05:01:24;;;;;;;0.60;0.60;;;;;;;-3.98;90.69;98592.03;4933273;29;20083;-85
2023/01/04 05:03:51;;;;;;;0.90;0.90;;;;;;;-4.01;90.87;98587.91;4932884;29;20162;-85
2023/01/04 05:06:19;;;;;;;0.70;0.70;;;;;;;-3.97;90.82;98591.91;4933449;29;20503;-84
2023/01/04 05:08:46;;;;;;;0.73;0.73;;;;;;;-4.03;90.23;98604.88;4933166;29;20065;-85
2023/01/04 05:11:13;;;;;;;0.70;0.70;;;;;;;-4.09;90.29;98609.00;4932263;29;20051;-85
2023/01/04 05:13:41;;;;;;;0.90;0.90;;;;;;;-4.07;90.16;98614.13;4932876;29;20107;-85
2023/01/04 05:16:09;;;;;;;0.80;0.80;;;;;;;-4.15;89.82;98620.19;4932044;29;20103;-85
2023/01/04 05:18:36;;;;;;;0.65;0.65;;;;;;;-4.16;89.52;98629.88;4932019;29;20067;-85
2023/01/04 05:21:03;;;;;;;0.70;0.70;;;;;;;-4.19;89.75;98632.84;4932171;29;20519;-84
2023/01/04 05:23:30;;;;;;;0.80;0.80;;;;;;;-4.17;89.91;98640.59;4918011;29;20043;-82
2023/01/04 05:26:02;;;;;;;0.70;0.70;;;;;;;-4.24;90.56;98643.03;4933740;29;20407;-86
2023/01/04 05:28:29;;;;;;;0.70;0.70;;;;;;;-4.09;90.31;98652.97;4934022;29;20059;-86
2023/01/04 05:30:56;;;;;;;0.80;0.80;;;;;;;-4.20;90.11;98640.94;4932982;29;20095;-84
2023/01/04 05:33:29;;;;;;;0.90;0.90;;;;;;;-4.15;90.50;98659.72;4916258;29;20047;-86
2023/01/04 05:35:58;;;;;;;0.70;0.70;;;;;;;-4.18;90.46;98644.22;4933194;29;20052;-85
2023/01/04 05:38:25;;;;;;;0.98;0.98;;;;;;;-4.18;90.87;98663.50;4931890;29;20159;-85
2023/01/04 05:40:53;;;;;;;0.68;0.68;;;;;;;-4.09;90.75;98685.44;4931625;29;20141;-85
2023/01/04 05:43:23;;;;;;;0.73;0.73;;;;;;;-4.19;90.07;98674.19;4932890;29;20075;-84
2023/01/04 05:45:52;;;;;;;0.77;0.77;;;;;;;-4.30;89.94;98682.34;4931455;29;20079;-84
2023/01/04 05:48:21;;;;;;;0.90;0.90;;;;;;;-4.28;89.75;98697.06;4915874;29;20075;-84
2023/01/04 05:50:49;;;;;;;0.68;0.68;;;;;;;-4.39;89.20;98695.50;4901321;29;20051;-84
2023/01/04 05:53:17;;;;;;;0.50;0.50;;;;;;;-4.35;88.94;98698.66;4933718;28;20050;-84
2023/01/04 05:55:48;;;;;;;0.82;0.82;;;;;;;-4.42;88.35;98701.09;4954815;28;20207;-83
2023/01/04 05:58:16;;;;;;;0.70;0.70;;;;;;;-4.44;88.12;98708.31;4947744;28;20140;-85
2023/01/04 06:00:44;;;;;;;0.88;0.88;;;;;;;-4.32;88.24;98731.78;4925538;29;20133;-86
2023/01/04 06:03:11;;;;;;;0.70;0.70;;;;;;;-4.42;88.21;98724.78;4908629;29;20058;-86
2023/01/04 06:05:39;;;;;;;0.63;0.63;;;;;;;-4.46;87.06;98736.63;4900600;29;20577;-86
2023/01/04 06:08:06;;;;;;;0.70;0.70;;;;;;;-4.46;87.03;98744.50;4932265;29;20502;-88
2023/01/04 06:10:34;;;;;;;0.90;0.90;;;;;;;-4.48;86.95;98735.97;4917650;29;20052;-89
2023/01/04 06:13:01;;;;;;;0.80;0.80;;;;;;;-4.49;86.61;98750.09;4916289;29;20051;-86
2023/01/04 06:15:29;;;;;;;0.70;0.70;;;;;;;-4.54;86.32;98741.00;4937020;29;20182;-93
2023/01/04 06:18:12;;;;;;;0.63;0.63;;;;;;;-4.52;86.48;98762.75;4905630;29;20257;-87
2023/01/04 06:20:41;;;;;;;0.70;0.70;;;;;;;-4.61;86.17;98751.31;4887724;29;20079;-88
2023/01/04 06:23:14;;;;;;;0.70;0.70;;;;;;;-4.55;86.34;98758.63;4922012;29;20095;-91
2023/01/04 06:25:41;;;;;;;0.80;0.80;;;;;;;-4.49;86.30;98776.44;4912702;29;20393;-85
2023/01/04 06:28:09;;;;;;;0.88;0.88;;;;;;;-4.44;86.29;98783.88;4911368;29;20126;-82
2023/01/04 06:30:36;;;;;;;0.80;0.80;;;;;;;-4.52;85.73;98782.03;4915573;29;20082;-84
2023/01/04 06:33:03;;;;;;;1.00;1.00;;;;;;;-4.56;85.74;98793.84;4923980;29;20051;-83
2023/01/04 06:35:31;;;;;;;0.70;0.70;;;;;;;-4.57;85.84;98784.28;4929731;29;20091;-86
2023/01/04 06:37:58;;;;;;;0.70;0.70;;;;;;;-4.51;85.84;98802.09;4915902;29;20059;-85
2023/01/04 06:40:28;;;;;;;0.80;0.80;;;;;;;-4.52;86.02;98807.53;4905847;29;20048;-92
2023/01/04 06:43:00;;;;;;;0.80;0.80;;;;;;;-4.58;85.42;98814.25;4908075;29;20078;-83
2023/01/04 06:45:27;;;;;;;0.70;0.70;;;;;;;-4.66;85.69;98804.47;4939154;29;20051;-91
2023/01/04 06:47:54;;;;;;;0.80;0.80;;;;;;;-4.65;85.79;98807.94;4922273;29;20059;-88
2023/01/04 06:50:21;;;;;;;0.88;0.88;;;;;;;-4.64;86.14;98820.13;4934631;29;20110;-90
2023/01/04 06:52:49;;;;;;;0.88;0.88;;;;;;;-4.64;86.13;98822.75;4907845;29;20059;-91
2023/01/04 06:55:16;;;;;;;0.80;0.80;;;;;;;-4.64;86.57;98817.47;4563054;29;10000658;-89
2023/01/04 06:57:44;;;;;;;0.85;0.85;;;;;;;-4.65;86.31;98824.56;4919813;29;20459;-88
2023/01/04 07:00:11;;;;;;;0.90;0.90;;;;;;;-4.56;86.58;98835.97;4938066;29;20055;-87
2023/01/04 07:02:39;;;;;;;0.77;0.77;;;;;;;-4.44;86.86;98842.66;4935678;29;20466;-86
2023/01/04 07:05:31;;;;;;;0.80;0.80;;;;;;;-4.48;87.06;98838.69;4940935;29;20055;-88
2023/01/04 07:08:01;;;;;;;0.70;0.70;;;;;;;-4.53;86.85;98835.69;4911665;29;20142;-92
2023/01/04 07:10:39;;;;;;;0.90;0.90;;;;;;;-4.48;87.01;98851.03;4954480;29;20066;-87
2023/01/04 07:13:07;;;;;;;0.80;0.80;;;;;;;-4.45;86.69;98838.38;4954824;29;20508;-85
2023/01/04 07:15:34;;;;;;;1.00;1.00;;;;;;;-4.59;86.36;98857.34;4966329;29;20078;-90
2023/01/04 07:18:10;;;;;;;1.05;1.05;;;;;;;-4.64;86.31;98854.34;4955662;29;20059;-88
2023/01/04 07:20:43;;;;;;;0.70;0.70;;;;;;;-4.61;86.37;98869.84;4963945;29;20082;-87
2023/01/04 07:23:10;;;;;;;0.73;0.73;;;;;;;-4.71;86.58;98854.16;4932339;29;20051;-90
2023/01/04 07:25:38;;;;;;;0.90;0.90;;;;;;;-4.62;86.02;98879.56;4906698;29;20056;-87
2023/01/04 07:28:05;;;;;;;0.90;0.90;;;;;;;-4.73;86.23;98868.44;4937609;29;20490;-88
2023/01/04 07:30:32;;;;;;;0.65;0.65;;;;;;;-4.74;86.39;98874.66;4938767;29;20147;-89
2023/01/04 07:32:59;;;;;;;0.80;0.80;;;;;;;-4.70;86.73;98884.75;4938822;29;20134;-86
2023/01/04 07:35:27;;;;;;;0.70;0.70;;;;;;;-4.65;86.74;98892.22;4942933;29;20052;-89
2023/01/04 07:37:54;;;;;;;0.80;0.80;;;;;;;-4.68;86.63;98888.06;4908794;29;20494;-89
2023/01/04 07:40:27;;;;;;;1.00;1.00;;;;;;;-4.60;87.00;98897.84;4942726;29;20070;-89
2023/01/04 07:42:59;;;;;;;1.10;1.10;;;;;;;-4.69;86.75;98883.75;4973063;29;20067;-90
2023/01/04 07:45:27;;;;;;;0.88;0.88;;;;;;;-4.64;86.75;98901.75;4938087;29;20075;-92
2023/01/04 07:47:54;;;;;;;0.90;0.90;;;;;;;-4.59;86.83;98904.75;4909949;29;20147;-89
2023/01/04 07:50:21;;;;;;;0.80;0.80;;;;;;;-4.50;86.34;98914.41;4936236;29;20450;-88
2023/01/04 07:52:50;;;;;;;0.60;0.60;;;;;;;-4.54;86.32;98913.03;4936125;29;20055;-88
2023/01/04 07:55:17;;;;;;;0.90;0.90;;;;;;;-4.61;86.17;98917.25;4936126;29;20130;-88
2023/01/04 07:57:44;;;;;;;0.90;0.90;;;;;;;-4.51;85.61;98939.06;4919077;29;20139;-86
2023/01/04 08:00:12;;;;;;;0.90;0.90;;;;;;;-4.63;84.25;98930.59;4942834;29;20056;-87
2023/01/04 08:02:39;;;;;;;0.95;0.95;;;;;;;-4.72;84.39;98933.28;4948183;29;20070;-88
2023/01/04 08:05:11;;;;;;;0.90;0.90;;;;;;;-4.61;84.45;98940.94;4939260;28;20055;-88
2023/01/04 08:07:38;;;;;;;0.70;0.70;;;;;;;-4.69;84.32;98944.34;4931446;29;20154;-85
2023/01/04 08:10:06;;;;;;;0.82;0.82;;;;;;;-4.68;84.68;98939.91;4937154;29;20047;-90
2023/01/04 08:12:33;;;;;;;0.80;0.80;;;;;;;-4.65;85.17;98942.25;4954701;28;20056;-88
2023/01/04 08:15:01;;;;;;;0.98;0.98;;;;;;;-4.53;85.10;98946.31;4935250;29;20146;-85
2023/01/04 08:17:29;;;;;;;0.90;0.90;;;;;;;-4.49;85.06;98945.03;4954543;29;20047;-86
2023/01/04 08:19:56;;;;;;;1.00;1.00;;;;;;;-4.50;83.61;98961.81;4953300;29;20514;-90
2023/01/04 08:22:23;;;;;;;0.90;0.90;;;;;;;-4.56;82.88;98949.25;4925786;29;20059;-87
2023/01/04 08:24:50;;;;;;;0.80;0.80;;;;;;;-4.53;83.04;98962.13;4938884;29;20043;-88
2023/01/04 08:27:17;;;;;;;0.70;0.70;;;;;;;-4.53;82.92;98946.31;4929221;29;20047;-86
2023/01/04 08:29:45;;;;;;;0.80;0.80;;;;;;;-4.38;82.70;98950.09;4912652;29;20051;-86
2023/01/04 08:32:12;;;;;;;0.82;0.82;;;;;;;-4.43;82.03;98941.81;4951253;29;20047;-89
2023/01/04 08:34:39;;;;;;;0.80;0.80;;;;;;;-4.56;81.40;98951.88;4937682;29;20051;-85
2023/01/04 08:37:08;;;;;;;0.90;0.90;;;;;;;-4.59;81.45;98963.53;4960829;28;20146;-88
2023/01/04 08:39:35;;;;;;;0.85;0.85;;;;;;;-4.68;81.22;98963.63;4954326;28;20417;-86
2023/01/04 08:42:02;;;;;;;0.75;0.75;;;;;;;-4.69;81.65;98961.94;4958303;29;20142;-89
2023/01/04 08:44:46;;;;;;;0.80;0.80;;;;;;;-4.83;81.66;98953.56;4943227;29;20055;-88
2023/01/04 08:47:13;;;;;;;0.77;0.77;;;;;;;-4.65;81.98;98969.41;4963202;29;20138;-90
2023/01/04 08:49:45;;;;;;;0.70;0.70;;;;;;;-4.73;81.72;98976.41;4928043;29;20126;-90
2023/01/04 08:52:14;;;;;;;1.00;1.00;;;;;;;-4.80;81.96;98978.78;4958649;29;20573;-89
2023/01/04 08:55:02;;;;;;;0.90;0.90;;;;;;;-4.86;82.25;98976.72;4889694;29;20055;-86
2023/01/04 08:57:38;;;;;;;0.90;0.90;;;;;;;-4.80;82.13;98969.06;4928145;29;20155;-88
2023/01/04 09:00:06;;;;;;;0.80;0.80;;;;;;;-4.71;82.23;98967.38;4937674;29;20107;-88
2023/01/04 09:02:34;;;;;;;0.90;0.90;;;;;;;-4.64;82.43;98960.50;4928407;29;20087;-89
2023/01/04 09:05:02;;;;;;;0.80;0.80;;;;;;;-4.47;82.27;98964.16;4943857;29;20051;-88
2023/01/04 09:07:31;;;;;;;0.93;0.93;;;;;;;-4.42;82.44;98961.09;4955841;29;20066;-86
2023/01/04 09:09:59;;;;;;;0.98;0.98;;;;;;;-4.39;81.74;98964.22;4954603;29;20087;-86
2023/01/04 09:12:34;;;;;;;0.80;0.80;;;;;;;-4.40;81.88;98961.75;4941182;29;20087;-85
2023/01/04 09:15:02;;;;;;;0.90;0.90;;;;;;;-4.32;81.72;98971.56;4919693;29;20075;-88
2023/01/04 09:17:32;;;;;;;0.80;0.80;;;;;;;-4.40;81.49;98970.50;4949133;28;20051;-86
2023/01/04 09:20:22;;;;;;;0.73;0.73;;;;;;;-4.50;81.39;98961.81;4929821;29;20066;-89
2023/01/04 09:23:03;;;;;;;0.80;0.80;;;;;;;-4.40;81.62;98973.13;4938697;29;20051;-88
2023/01/04 09:25:30;;;;;;;0.70;0.70;;;;;;;-4.43;81.17;98965.53;4935019;28;20079;-88
2023/01/04 09:27:57;;;;;;;1.00;1.00;;;;;;;-4.42;81.37;98982.97;4963143;28;20090;-87
2023/01/04 09:30:30;;;;;;;1.00;1.00;;;;;;;-4.42;81.46;98980.34;4930385;29;20489;-87
2023/01/04 09:32:57;;;;;;;0.80;0.80;;;;;;;-4.47;80.90;98976.50;4954795;29;20047;-88
2023/01/04 09:35:26;;;;;;;0.82;0.82;;;;;;;-4.55;80.90;98984.34;4938461;29;20059;-88
2023/01/04 09:37:54;;;;;;;0.90;0.90;;;;;;;-4.68;81.52;98963.63;4951876;28;20058;-88
2023/01/04 09:40:32;;;;;;;0.70;0.70;;;;;;;-4.45;81.99;98985.09;4944739;29;20055;-89
2023/01/04 09:43:01;;;;;;;1.00;1.00;;;;;;;-4.49;82.19;98973.19;4911005;29;20681;-90
2023/01/04 09:46:39;;;;;;;0.95;0.95;;;;;;;-4.42;82.18;98990.88;4920617;29;20048;-92
2023/01/04 09:49:25;;;;;;;0.90;0.90;;;;;;;-4.51;81.61;98993.56;4928295;29;20038;-90
2023/01/04 09:52:03;;;;;;;0.90;0.90;;;;;;;-4.57;81.54;98998.47;4953735;28;20058;-86
2023/01/04 09:54:48;;;;;;;0.70;0.70;;;;;;;-4.60;82.13;98992.66;4938282;29;20055;-85
2023/01/04 09:57:25;;;;;;;0.80;0.80;;;;;;;-4.64;82.20;98991.31;4923371;29;20147;-90
2023/01/04 10:00:18;;;;;;;0.88;0.88;;;;;;;-4.71;82.35;98984.97;4910983;29;20063;-89
2023/01/04 10:02:51;;;;;;;0.70;0.70;;;;;;;-4.56;82.55;98988.75;4940033;29;20542;-90
2023/01/04 10:05:33;;;;;;;0.63;0.63;;;;;;;-4.48;82.55;98990.63;4947318;29;20047;-91
2023/01/04 10:08:17;;;;;;;0.75;0.75;;;;;;;-4.62;82.71;98966.47;4929381;29;20067;-91
2023/01/04 10:11:23;;;;;;;0.90;0.90;;;;;;;-4.49;82.38;98974.00;4916949;29;20048;-92
2023/01/04 10:14:51;;;;;;;0.70;0.70;;;;;;;-4.57;81.76;98985.28;4945630;29;20169;-90
2023/01/04 10:17:21;;;;;;;0.90;0.90;;;;;;;-4.57;81.68;98961.59;4948350;29;20063;-90
2023/01/04 10:20:26;;;;;;;0.80;0.80;;;;;;;-4.52;80.96;98971.69;4953919;29;20044;-91
2023/01/04 10:23:21;;;;;;;0.70;0.70;;;;;;;-4.52;80.71;98973.50;4929545;29;20091;-89
2023/01/04 10:25:57;;;;;;;0.93;0.93;;;;;;;-4.68;80.26;98951.28;4955493;29;20059;-90
2023/01/04 10:28:56;;;;;;;;;;;;;;;-4.47;80.04;98971.25;4914132;29;20067;-90
2023/01/04 10:31:50;;;;;;;0.70;0.70;;;;;;;-4.58;79.87;98969.66;4913205;29;19926;-90
2023/01/04 10:34:44;;;;;;;0.80;0.80;;;;;;;-4.53;80.17;98975.31;4942603;29;20055;-89
2023/01/04 10:37:34;;;;;;;1.05;1.05;;;;;;;-4.46;80.27;98963.16;4905271;29;20360;-90
2023/01/04 10:40:17;;;;;;;0.85;0.85;;;;;;;-4.61;80.28;98933.06;4931169;29;20517;-90
2023/01/04 10:43:11;;;;;;;0.68;0.68;;;;;;;-4.41;80.12;98966.19;4932284;29;20107;-90
2023/01/04 10:45:44;;;;;;;0.70;0.70;;;;;;;-4.30;80.23;98961.66;4947631;29;20142;-90
2023/01/04 10:48:31;;;;;;;0.85;0.85;;;;;;;-4.32;80.00;98968.91;4939965;29;20493;-91
2023/01/04 10:51:01;;;;;;;0.80;0.80;;;;;;;-4.34;80.35;98962.97;4947841;29;20047;-89
2023/01/04 10:53:56;;;;;;;0.90;0.90;;;;;;;-4.34;80.30;98957.69;4945346;29;20051;-89
2023/01/04 10:56:36;;;;;;;0.77;0.77;;;;;;;-4.39;79.82;98956.31;4926221;29;20055;-91
2023/01/04 10:59:20;;;;;;;0.73;0.73;;;;;;;-4.39;79.65;98955.50;4944082;29;20450;-90
2023/01/04 11:02:14;;;;;;;0.85;0.85;;;;;;;-4.35;79.98;98954.25;4927484;29;20055;-91
2023/01/04 11:05:03;;;;;;;0.80;0.80;;;;;;;-4.43;79.75;98939.19;4924308;29;20099;-91
2023/01/04 11:07:39;;;;;;;0.80;0.80;;;;;;;-4.32;79.88;98953.94;4923300;29;20047;-90
2023/01/04 11:10:16;;;;;;;0.70;0.70;;;;;;;-4.37;80.10;98954.38;4896496;29;20072;-92
2023/01/04 11:12:44;;;;;;;0.70;0.70;;;;;;;-4.39;80.28;98958.13;4919785;29;20507;-93
2023/01/04 11:15:12;;;;;;;0.80;0.80;;;;;;;-4.44;80.51;98961.22;4943785;29;20092;-93
2023/01/04 11:17:44;;;;;;;0.80;0.80;;;;;;;-4.55;80.63;98943.00;4916325;29;20050;-90
2023/01/04 11:20:19;;;;;;;0.93;0.93;;;;;;;-4.52;80.90;98957.69;4930984;28;20043;-88
2023/01/04 11:23:13;;;;;;;0.90;0.90;;;;;;;-4.44;80.93;98968.31;4930380;29;20531;-92
2023/01/04 11:26:01;;;;;;;0.80;0.80;;;;;;;-4.65;81.02;98948.34;4939631;29;20020;-90
2023/01/04 11:29:26;;;;;;;0.73;0.73;;;;;;;-4.53;81.87;98977.94;4916719;29;20102;-93
2023/01/04 11:32:43;;;;;;;0.80;0.80;;;;;;;-4.60;81.25;98974.22;4897317;29;20073;-92
2023/01/04 11:36:26;;;;;;;0.80;0.80;;;;;;;-4.66;81.18;98977.44;4896276;29;20065;-92
2023/01/04 11:39:32;;;;;;;0.85;0.85;;;;;;;-4.81;80.79;98977.09;4879884;29;20062;-92
2023/01/04 11:42:19;;;;;;;0.73;0.73;;;;;;;-4.81;80.39;99000.81;4878423;29;20073;-92
2023/01/04 11:48:42;;;;;;;0.70;0.70;;;;;;;-4.96;80.44;98986.47;4879223;29;20061;-91
2023/01/04 11:51:39;;;;;;;0.80;0.80;;;;;;;-5.02;80.15;98982.63;4867935;29;20044;-91
2023/01/04 11:54:46;;;;;;;0.90;0.90;;;;;;;-4.96;80.84;98997.84;4883232;29;20047;-91
2023/01/04 11:57:35;;;;;;;0.90;0.90;;;;;;;-5.02;80.85;98996.59;5017415;23;20472;-94
2023/01/04 12:00:17;;;;;;;0.60;0.60;;;;;;;-5.18;80.56;98964.84;4976688;28;20054;-92
2023/01/04 12:03:12;;;;;;;0.90;0.90;;;;;;;-5.24;80.46;98978.59;4948248;28;20053;-87
2023/01/04 12:06:32;;;;;;;1.00;1.00;;;;;;;-5.11;80.72;98997.50;4970376;28;20046;-89
2023/01/04 12:09:13;;;;;;;0.73;0.73;;;;;;;-5.06;80.62;98997.88;4988993;28;20358;-89
2023/01/04 12:11:55;;;;;;;0.73;0.73;;;;;;;-5.11;80.86;98994.03;4971426;28;20446;-91
2023/01/04 12:14:28;;;;;;;0.70;0.70;;;;;;;-5.15;81.14;98976.88;5050435;23;20055;-89
2023/01/04 12:17:54;;;;;;;0.95;0.95;;;;;;;-5.02;80.99;98990.53;4963742;28;20138;-90
2023/01/04 12:20:31;;;;;;;0.63;0.63;;;;;;;-5.05;80.99;98978.47;4947496;28;20035;-88
2023/01/04 12:23:13;;;;;;;0.70;0.70;;;;;;;-4.89;81.07;98998.09;4955520;28;20073;-86
2023/01/04 12:25:48;;;;;;;0.93;0.93;;;;;;;-4.90;80.73;98985.91;4958465;28;20051;-87
2023/01/04 12:28:38;;;;;;;0.80;0.80;;;;;;;-5.03;80.79;98971.28;4946841;28;20046;-84
2023/01/04 12:31:28;;;;;;;1.02;1.02;;;;;;;-4.92;81.18;98991.31;4947165;29;20897;-87
2023/01/04 12:34:27;;;;;;;0.65;0.65;;;;;;;-5.02;81.48;98964.19;4945627;29;20055;-86
2023/01/04 12:37:41;;;;;;;;;;;;;;;-4.94;81.17;98982.72;4964398;28;20141;-89
2023/01/04 12:40:46;;;;;;;0.98;0.98;;;;;;;-4.99;81.51;98995.50;4982063;28;19936;-91
2023/01/04 12:43:36;;;;;;;0.80;0.80;;;;;;;-4.97;81.92;98993.53;4967591;28;20080;-90
2023/01/04 12:49:27;;;;;;;0.90;0.90;;;;;;;-4.98;82.71;98989.28;4929506;29;20127;-90
2023/01/04 12:52:07;;;;;;;0.80;0.80;;;;;;;-5.01;82.61;99000.09;4969060;28;20047;-88
2023/01/04 12:55:02;;;;;;;0.95;0.95;;;;;;;-5.13;82.13;98999.44;4979089;28;20059;-88
2023/01/04 12:57:38;;;;;;;1.10;1.10;;;;;;;-5.19;82.63;98986.03;4915782;29;20055;-89
2023/01/04 13:00:11;;;;;;;0.70;0.70;;;;;;;-5.17;82.22;98992.78;4929342;29;20058;-90